ROMMA est une association bénévole à but non lucratif. Votre soutien est indispensable : ADHERER à ROMMA ou FAIRE un DON

Pinsot - (38, Isère)

Vallée du Haut Bréda (750 m)   Longitude: 06° 06' E   Latitude: 45° 21' N Station partenaire n°101
 

Détail journalier du     <<     >>

Température Precipitation Humidité Pression Vent Dir Rafale Dir. rafale Ensol.
Heure (°C) (mm) (%) (hPa) (km/h) (km/h) (min)
01:00 1.0095102306ENE0
02:00 0.90.29410232NE13NNE0
03:00 0.809310232NE15E0
04:00 0.609410231NNE6NE0
05:00 0.5095102305N0
06:00 0.5096102303NNO0
07:00 0.60961024000
08:00 0.60961024000
09:00 0.6096102505N0
10:00 1.1097102505N0
11:00 1.6094102505N0
12:00 1.509310251N15NNE0
13:00 2.10921025011NNE0
14:00 1.809210241N11N0
15:00 1.8092102406NNO0
16:00 1.609110242N13NNO0
17:00 1.6093102405NNO0
18:00 1.309410241N5NNO0
19:00 1.209410241NE6NE0
20:00 1.2094102505N0
21:00 1.0094102503NE0
22:00 0.8094102405NE0
23:00 0.7094102405ENE0
minuit 0.409310241ENE6E0

Graphique du 03-12-2019

 

Serveur OMMA